createdAt,value
2018-05-02T00:00:02.841Z,0
2018-05-02T00:05:03.615Z,0
2018-05-02T00:10:03.212Z,0
2018-05-02T00:15:02.777Z,0
2018-05-02T00:20:03.371Z,0
2018-05-02T00:25:02.934Z,0
2018-05-02T00:30:03.698Z,0
2018-05-02T00:35:03.193Z,0
2018-05-02T00:40:02.912Z,0
2018-05-02T00:45:03.496Z,0
2018-05-02T00:50:03.054Z,0
2018-05-02T00:55:02.599Z,0
2018-05-02T01:00:03.196Z,0
2018-05-02T01:05:02.818Z,0
2018-05-02T01:10:03.571Z,0
2018-05-02T01:15:03.117Z,0
2018-05-02T01:20:02.710Z,0
2018-05-02T01:25:03.287Z,0
2018-05-02T01:30:02.892Z,0
2018-05-02T01:35:03.459Z,0
2018-05-02T01:40:03.109Z,0
2018-05-02T01:45:02.673Z,0
2018-05-02T01:50:03.198Z,0
2018-05-02T01:55:02.799Z,0
2018-05-02T02:00:03.404Z,0
2018-05-02T02:05:02.956Z,0
2018-05-02T02:10:03.708Z,0
2018-05-02T02:15:03.281Z,0
2018-05-02T02:20:03.005Z,0
2018-05-02T02:25:03.576Z,0
2018-05-02T02:30:03.123Z,0
2018-05-02T02:35:02.744Z,0
2018-05-02T02:40:03.487Z,0
2018-05-02T02:45:03.120Z,0
2018-05-02T02:50:02.744Z,0
2018-05-02T02:55:03.380Z,0
2018-05-02T03:00:03.331Z,0
2018-05-02T03:05:02.937Z,0
2018-05-02T03:10:03.679Z,0
2018-05-02T03:15:03.295Z,0
2018-05-02T03:20:03.142Z,0
2018-05-02T03:25:02.712Z,0
2018-05-02T03:30:03.324Z,0
2018-05-02T03:35:02.942Z,0
2018-05-02T03:40:03.514Z,0
2018-05-02T03:45:03.081Z,0
2018-05-02T03:50:02.674Z,0
2018-05-02T03:55:03.244Z,0
2018-05-02T04:00:02.987Z,0
2018-05-02T04:05:03.606Z,0
2018-05-02T04:10:03.188Z,0
2018-05-02T04:15:02.749Z,0
2018-05-02T04:20:03.292Z,0
2018-05-02T04:25:02.801Z,0
2018-05-02T04:30:03.370Z,0
2018-05-02T04:35:02.909Z,0
2018-05-02T04:40:03.502Z,0
2018-05-02T04:45:03.126Z,0
2018-05-02T04:50:02.703Z,0
2018-05-02T04:55:03.233Z,0
2018-05-02T05:00:02.769Z,0
2018-05-02T05:05:03.355Z,0
2018-05-02T05:10:02.977Z,0
2018-05-02T05:15:03.534Z,1
2018-05-02T05:20:03.092Z,0
2018-05-02T05:25:02.675Z,0
2018-05-02T05:30:03.220Z,0
2018-05-02T05:35:02.750Z,0
2018-05-02T05:40:03.421Z,0
2018-05-02T05:45:03.014Z,0
2018-05-02T05:50:03.575Z,0
2018-05-02T05:55:03.145Z,2
2018-05-02T06:00:02.772Z,0
2018-05-02T06:05:03.495Z,1
2018-05-02T06:10:03.266Z,0
2018-05-02T06:15:02.930Z,0
2018-05-02T06:20:03.534Z,2
2018-05-02T06:25:03.125Z,0
2018-05-02T06:30:02.686Z,2
2018-05-02T06:35:03.404Z,2
2018-05-02T06:40:03.025Z,2
2018-05-02T06:45:02.644Z,2
2018-05-02T06:50:03.225Z,2
2018-05-02T06:55:03.048Z,3
2018-05-02T07:00:02.796Z,7
2018-05-02T07:05:03.517Z,3
2018-05-02T07:10:03.141Z,3
2018-05-02T07:15:02.720Z,3
2018-05-02T07:20:03.335Z,1
2018-05-02T07:25:02.969Z,3
2018-05-02T07:30:03.564Z,2
2018-05-02T07:35:03.248Z,3
2018-05-02T07:40:02.924Z,3
2018-05-02T07:45:03.501Z,3
2018-05-02T07:50:03.085Z,3
2018-05-02T07:55:02.796Z,0
2018-05-02T08:00:03.549Z,0
2018-05-02T08:05:03.202Z,2
2018-05-02T08:10:02.864Z,5
2018-05-02T08:15:03.490Z,1
2018-05-02T08:20:03.085Z,2
2018-05-02T08:25:02.651Z,3
2018-05-02T08:30:03.281Z,6
2018-05-02T08:35:02.896Z,4
2018-05-02T08:40:03.550Z,1
2018-05-02T08:45:03.094Z,4
2018-05-02T08:50:02.663Z,2
2018-05-02T08:55:03.269Z,8
2018-05-02T09:00:02.802Z,3
2018-05-02T09:05:03.470Z,3
2018-05-02T09:10:03.148Z,1
2018-05-02T09:15:02.808Z,0
2018-05-02T09:20:03.446Z,5
2018-05-02T09:25:03.028Z,5
2018-05-02T09:30:02.648Z,5
2018-05-02T09:35:03.286Z,0
2018-05-02T09:40:02.908Z,9
2018-05-02T09:45:03.512Z,5
2018-05-02T09:50:03.122Z,1
2018-05-02T09:55:02.655Z,3
2018-05-02T10:00:03.259Z,8
2018-05-02T10:05:02.886Z,6
2018-05-02T10:10:03.553Z,3
2018-05-02T10:15:03.152Z,6
2018-05-02T10:20:02.706Z,2
2018-05-02T10:25:03.724Z,5
2018-05-02T10:30:03.410Z,6
2018-05-02T10:35:03.014Z,4
2018-05-02T10:40:02.675Z,6
2018-05-02T10:45:03.277Z,5
2018-05-02T10:50:02.892Z,5
2018-05-02T10:55:03.497Z,0
2018-05-02T11:00:03.117Z,1
2018-05-02T11:05:02.740Z,6
2018-05-02T11:10:03.285Z,5
2018-05-02T11:15:02.846Z,4
2018-05-02T11:20:03.403Z,1
2018-05-02T11:25:02.963Z,1
2018-05-02T11:30:03.514Z,2
2018-05-02T11:35:03.067Z,3
2018-05-02T11:40:02.667Z,5
2018-05-02T11:45:03.180Z,3
2018-05-02T11:50:02.714Z,7
2018-05-02T11:55:03.243Z,5
2018-05-02T12:00:02.780Z,3
2018-05-02T12:05:03.333Z,5
2018-05-02T12:10:03.056Z,5
2018-05-02T12:15:03.613Z,3
2018-05-02T12:20:03.227Z,2
2018-05-02T12:25:02.788Z,2
2018-05-02T12:30:03.401Z,4
2018-05-02T12:35:02.916Z,4
2018-05-02T12:40:03.699Z,5
2018-05-02T12:45:03.359Z,6
2018-05-02T12:50:02.933Z,3
2018-05-02T12:55:03.519Z,8
2018-05-02T13:00:02.962Z,6
2018-05-02T13:05:03.813Z,2
2018-05-02T13:10:03.464Z,2
2018-05-02T13:15:03.053Z,6
2018-05-02T13:20:02.659Z,4
2018-05-02T13:25:03.237Z,6
2018-05-02T13:30:02.835Z,3
2018-05-02T13:35:03.365Z,7
2018-05-02T13:40:02.901Z,4
2018-05-02T13:45:03.544Z,6
2018-05-02T13:50:03.180Z,4
2018-05-02T13:55:02.831Z,9
2018-05-02T14:00:03.404Z,6
2018-05-02T14:05:03.037Z,5
2018-05-02T14:10:02.656Z,4
2018-05-02T14:15:03.269Z,7
2018-05-02T14:20:02.858Z,5
2018-05-02T14:25:03.429Z,9
2018-05-02T14:30:02.998Z,6
2018-05-02T14:35:02.655Z,7
2018-05-02T14:40:03.261Z,6
2018-05-02T14:45:03.000Z,10
2018-05-02T14:50:03.560Z,5
2018-05-02T14:55:03.094Z,7
2018-05-02T15:00:02.651Z,5
2018-05-02T15:05:03.299Z,5
2018-05-02T15:10:02.949Z,3
2018-05-02T15:15:03.575Z,3
2018-05-02T15:20:03.120Z,7
2018-05-02T15:25:02.690Z,9
2018-05-02T15:30:03.299Z,4
2018-05-02T15:35:02.933Z,9
2018-05-02T15:40:03.569Z,3
2018-05-02T15:45:03.125Z,6
2018-05-02T15:50:02.718Z,3
2018-05-02T15:55:03.226Z,8
2018-05-02T16:00:02.712Z,7
2018-05-02T16:05:03.438Z,6
2018-05-02T16:10:03.312Z,6
2018-05-02T16:15:03.207Z,7
2018-05-02T16:20:02.829Z,4
2018-05-02T16:25:03.499Z,6
2018-05-02T16:30:03.231Z,9
2018-05-02T16:35:02.790Z,5
2018-05-02T16:40:03.437Z,7
2018-05-02T16:45:03.480Z,7
2018-05-02T16:50:03.231Z,4
2018-05-02T16:55:02.816Z,4
2018-05-02T17:00:03.549Z,4
2018-05-02T17:05:03.103Z,3
2018-05-02T17:10:02.744Z,7
2018-05-02T17:15:03.328Z,7
2018-05-02T17:20:02.935Z,4
2018-05-02T17:25:03.454Z,5
2018-05-02T17:30:03.240Z,5
2018-05-02T17:35:02.982Z,5
2018-05-02T17:40:03.555Z,3
2018-05-02T17:45:03.125Z,4
2018-05-02T17:50:02.616Z,3
2018-05-02T17:55:03.162Z,2
2018-05-02T18:00:02.763Z,4
2018-05-02T18:05:03.325Z,3
2018-05-02T18:10:02.960Z,2
2018-05-02T18:15:03.781Z,3
2018-05-02T18:20:03.457Z,3
2018-05-02T18:25:02.972Z,2
2018-05-02T18:30:03.545Z,2
2018-05-02T18:35:03.091Z,3
2018-05-02T18:40:02.666Z,3
2018-05-02T18:45:03.158Z,2
2018-05-02T18:50:02.796Z,1
2018-05-02T18:55:03.379Z,2
2018-05-02T19:00:02.941Z,0
2018-05-02T19:05:03.512Z,0
2018-05-02T19:10:03.071Z,1
2018-05-02T19:15:03.720Z,1
2018-05-02T19:20:03.261Z,0
2018-05-02T19:25:02.831Z,0
2018-05-02T19:30:03.430Z,1
2018-05-02T19:35:02.990Z,0
2018-05-02T19:40:02.692Z,1
2018-05-02T19:45:03.287Z,2
2018-05-02T19:50:02.849Z,1
2018-05-02T19:55:03.393Z,0
2018-05-02T20:00:02.896Z,0
2018-05-02T20:05:03.464Z,1
2018-05-02T20:10:03.093Z,2
2018-05-02T20:15:02.698Z,0
2018-05-02T20:20:03.237Z,3
2018-05-02T20:25:02.744Z,3
2018-05-02T20:30:03.268Z,2
2018-05-02T20:35:02.874Z,3
2018-05-02T20:40:03.506Z,3
2018-05-02T20:45:03.081Z,1
2018-05-02T20:50:02.821Z,3
2018-05-02T20:55:03.781Z,7
2018-05-02T21:00:02.863Z,2
2018-05-02T21:05:03.503Z,3
2018-05-02T21:10:03.147Z,4
2018-05-02T21:15:02.740Z,4
2018-05-02T21:20:03.345Z,3
2018-05-02T21:25:02.899Z,3
2018-05-02T21:30:03.506Z,4
2018-05-02T21:35:03.070Z,5
2018-05-02T21:40:02.748Z,5
2018-05-02T21:45:03.278Z,4
2018-05-02T21:50:03.112Z,4
2018-05-02T21:55:02.659Z,4
2018-05-02T22:00:03.199Z,6
2018-05-02T22:05:02.719Z,6
2018-05-02T22:10:03.339Z,4
2018-05-02T22:15:02.863Z,3
2018-05-02T22:20:03.579Z,2
2018-05-02T22:25:03.081Z,3
2018-05-02T22:30:02.698Z,2
2018-05-02T22:35:03.224Z,2
2018-05-02T22:40:02.835Z,8
2018-05-02T22:45:03.338Z,9
2018-05-02T22:50:02.861Z,6
2018-05-02T22:55:03.440Z,3
2018-05-02T23:00:05.478Z,3
2018-05-02T23:05:03.269Z,4
2018-05-02T23:10:02.853Z,6
2018-05-02T23:15:03.470Z,2
2018-05-02T23:20:03.078Z,1
2018-05-02T23:25:02.644Z,4
2018-05-02T23:30:03.214Z,4
2018-05-02T23:35:02.896Z,2
2018-05-02T23:40:03.475Z,5
2018-05-02T23:45:03.019Z,5
2018-05-02T23:50:03.568Z,7
2018-05-02T23:55:03.119Z,3
